createdAt,value
2022-10-27T00:04:54.189Z,0
2022-10-27T00:09:54.165Z,0
2022-10-27T00:14:53.839Z,0
2022-10-27T00:19:54.174Z,0
2022-10-27T00:24:54.293Z,0
2022-10-27T00:29:54.068Z,0
2022-10-27T00:34:53.909Z,0
2022-10-27T00:39:53.826Z,0
2022-10-27T00:44:54.091Z,0
2022-10-27T00:49:54.037Z,0
2022-10-27T00:54:53.874Z,0
2022-10-27T00:59:54.023Z,0
2022-10-27T01:04:53.788Z,0
2022-10-27T01:09:53.813Z,0
2022-10-27T01:14:53.813Z,0
2022-10-27T01:19:53.916Z,0
2022-10-27T01:24:53.971Z,0
2022-10-27T01:30:04.265Z,0
2022-10-27T01:34:54.040Z,0
2022-10-27T01:39:56.830Z,0
2022-10-27T01:44:54.099Z,0
2022-10-27T01:49:53.785Z,0
2022-10-27T01:54:53.694Z,0
2022-10-27T01:59:53.857Z,0
2022-10-27T02:04:53.734Z,0
2022-10-27T02:09:54.016Z,0
2022-10-27T02:14:53.844Z,0
2022-10-27T02:19:53.868Z,0
2022-10-27T02:24:53.746Z,0
2022-10-27T02:29:54.130Z,0
2022-10-27T02:34:53.919Z,0
2022-10-27T02:39:53.880Z,0
2022-10-27T02:44:53.916Z,0
2022-10-27T02:49:53.862Z,0
2022-10-27T02:54:53.866Z,0
2022-10-27T02:59:53.988Z,0
2022-10-27T03:04:53.931Z,0
2022-10-27T03:09:53.910Z,0
2022-10-27T03:14:54.017Z,0
2022-10-27T03:19:53.674Z,0
2022-10-27T03:24:53.774Z,0
2022-10-27T03:29:53.946Z,0
2022-10-27T03:34:53.726Z,0
2022-10-27T03:39:53.941Z,0
2022-10-27T03:44:53.720Z,0
2022-10-27T03:49:53.932Z,0
2022-10-27T03:54:53.575Z,0
2022-10-27T03:59:53.958Z,0
2022-10-27T04:04:53.619Z,0
2022-10-27T04:09:53.842Z,0
2022-10-27T04:14:53.825Z,0
2022-10-27T04:19:54.096Z,0
2022-10-27T04:24:53.713Z,0
2022-10-27T04:29:53.595Z,0
2022-10-27T04:34:53.852Z,0
2022-10-27T04:39:53.753Z,0
2022-10-27T04:44:53.696Z,0
2022-10-27T04:49:53.713Z,0
2022-10-27T04:54:53.533Z,0
2022-10-27T04:59:53.679Z,0
2022-10-27T05:04:54.157Z,0
2022-10-27T05:09:53.579Z,0
2022-10-27T05:14:53.641Z,0
2022-10-27T05:19:53.703Z,0
2022-10-27T05:24:53.692Z,0
2022-10-27T05:29:53.566Z,0
2022-10-27T05:34:53.867Z,0
2022-10-27T05:39:53.806Z,0
2022-10-27T05:44:53.628Z,0
2022-10-27T05:49:53.532Z,0
2022-10-27T05:54:53.687Z,0
2022-10-27T05:59:53.521Z,0
2022-10-27T06:04:53.672Z,0
2022-10-27T06:09:54.093Z,0
2022-10-27T06:14:53.634Z,0
2022-10-27T06:19:53.734Z,0.3
2022-10-27T06:24:53.604Z,0.6
2022-10-27T06:29:53.691Z,0.9
2022-10-27T06:34:53.946Z,1.6
2022-10-27T06:39:53.521Z,2.8
2022-10-27T06:44:53.622Z,4.5
2022-10-27T06:49:53.468Z,6.2
2022-10-27T06:54:55.163Z,7.1
2022-10-27T06:59:53.678Z,7.5
2022-10-27T07:04:53.890Z,8.2
2022-10-27T07:09:53.678Z,8.9
2022-10-27T07:14:53.454Z,10
2022-10-27T07:19:53.384Z,11.7
2022-10-27T07:24:53.453Z,13.8
2022-10-27T07:29:55.659Z,15.9
2022-10-27T07:34:53.677Z,17.5
2022-10-27T07:39:53.665Z,18.9
2022-10-27T07:44:53.669Z,21.3
2022-10-27T07:49:53.790Z,27.7
2022-10-27T07:54:53.392Z,32.9
2022-10-27T07:59:53.614Z,37.9
2022-10-27T08:04:53.394Z,42.9
2022-10-27T08:09:53.456Z,48.5
2022-10-27T08:14:55.813Z,49
2022-10-27T08:19:53.674Z,51.3
2022-10-27T08:24:53.512Z,61.3
2022-10-27T08:29:53.640Z,73.6
2022-10-27T08:34:54.148Z,77.5
2022-10-27T08:39:53.484Z,78.2
2022-10-27T08:44:53.285Z,79.2
2022-10-27T08:49:53.471Z,85.9
2022-10-27T08:54:56.268Z,95.4
2022-10-27T08:59:54.060Z,103.7
2022-10-27T09:04:53.322Z,97.6
2022-10-27T09:09:53.323Z,90.5
2022-10-27T09:14:53.313Z,88.6
2022-10-27T09:19:53.459Z,85.8
2022-10-27T09:24:53.371Z,78.9
2022-10-27T09:29:53.277Z,70.8
2022-10-27T09:34:57.415Z,69.1
2022-10-27T09:39:53.315Z,74.2
2022-10-27T09:44:53.319Z,79.2
2022-10-27T09:49:53.388Z,79.9
2022-10-27T09:54:55.587Z,87.6
2022-10-27T09:59:53.434Z,103.2
2022-10-27T10:04:53.482Z,117.3
2022-10-27T10:09:53.349Z,119.5
2022-10-27T10:15:14.146Z,113.3
2022-10-27T10:19:53.466Z,109.3
2022-10-27T10:24:53.283Z,104.8
2022-10-27T10:29:53.452Z,106.2
2022-10-27T10:34:53.996Z,115.6
2022-10-27T10:39:53.274Z,118.5
2022-10-27T10:44:53.250Z,118.5
2022-10-27T10:49:54.384Z,121.1
2022-10-27T10:54:53.462Z,121.7
2022-10-27T10:59:53.285Z,117.7
2022-10-27T11:04:54.006Z,114.8
2022-10-27T11:09:53.340Z,110.7
2022-10-27T11:14:54.838Z,111.1
2022-10-27T11:19:56.891Z,119.9
2022-10-27T11:24:56.676Z,147.7
2022-10-27T11:29:57.810Z,99.1
2022-10-27T11:34:53.156Z,90.7
2022-10-27T11:39:53.091Z,94
2022-10-27T11:44:53.403Z,88.9
2022-10-27T11:49:53.104Z,78.9
2022-10-27T11:54:54.079Z,73.3
2022-10-27T11:59:53.275Z,71.9
2022-10-27T12:04:53.436Z,51.2
2022-10-27T12:09:53.248Z,51
2022-10-27T12:14:56.563Z,65.2
2022-10-27T12:19:53.183Z,89.1
2022-10-27T12:24:53.113Z,126.1
2022-10-27T12:29:54.956Z,160.8
2022-10-27T12:34:53.636Z,141.3
2022-10-27T12:39:53.090Z,122.6
2022-10-27T12:49:58.249Z,94.6
2022-10-27T12:54:59.611Z,97.2
2022-10-27T12:59:53.310Z,96.5
2022-10-27T13:04:53.354Z,103.7
2022-10-27T13:10:06.810Z,105.9
2022-10-27T13:15:13.667Z,98.4
2022-10-27T13:19:53.113Z,90
2022-10-27T13:24:57.766Z,88.4
2022-10-27T13:29:55.676Z,84.7
2022-10-27T13:35:26.128Z,75.3
2022-10-27T13:39:53.811Z,76.3
2022-10-27T13:44:53.002Z,76.3
2022-10-27T13:49:53.138Z,81.9
2022-10-27T13:54:53.338Z,107.2
2022-10-27T13:59:57.898Z,130.2
2022-10-27T14:04:53.240Z,127
2022-10-27T14:09:52.984Z,119.7
2022-10-27T14:14:53.074Z,109.6
2022-10-27T14:19:53.053Z,98.1
2022-10-27T14:24:56.238Z,91
2022-10-27T14:29:52.970Z,86.6
2022-10-27T14:34:53.095Z,88.5
2022-10-27T14:39:53.118Z,85
2022-10-27T14:44:53.039Z,80.7
2022-10-27T14:49:52.942Z,73.1
2022-10-27T14:54:53.127Z,67
2022-10-27T14:59:53.262Z,64.1
2022-10-27T15:04:53.016Z,55.9
2022-10-27T15:09:53.314Z,54.1
2022-10-27T15:14:53.172Z,52.9
2022-10-27T15:19:53.220Z,45.5
2022-10-27T15:24:54.119Z,39.6
2022-10-27T15:29:53.770Z,36.4
2022-10-27T15:34:52.868Z,34.3
2022-10-27T15:39:52.909Z,33
2022-10-27T15:44:53.071Z,31
2022-10-27T15:49:53.610Z,27.9
2022-10-27T15:54:53.056Z,23.6
2022-10-27T15:59:52.853Z,18.7
2022-10-27T16:04:53.224Z,14.3
2022-10-27T16:09:52.914Z,10.2
2022-10-27T16:14:52.999Z,7.1
2022-10-27T16:19:53.133Z,4.8
2022-10-27T16:24:52.965Z,3
2022-10-27T16:29:52.996Z,1.5
2022-10-27T16:34:52.989Z,0.5
2022-10-27T16:39:53.188Z,0.2
2022-10-27T16:44:53.115Z,0.1
2022-10-27T16:49:53.034Z,0
2022-10-27T16:54:52.880Z,0
2022-10-27T16:59:53.041Z,0
2022-10-27T17:04:52.909Z,0
2022-10-27T17:09:53.062Z,0
2022-10-27T17:14:52.994Z,0
2022-10-27T17:19:52.930Z,0
2022-10-27T17:24:52.884Z,0
2022-10-27T17:29:52.775Z,0
2022-10-27T17:34:53.073Z,0
2022-10-27T17:39:53.018Z,0
2022-10-27T17:44:52.892Z,0
2022-10-27T17:49:52.893Z,0
2022-10-27T17:54:52.785Z,0
2022-10-27T17:59:53.411Z,0
2022-10-27T18:04:52.876Z,0
2022-10-27T18:09:52.739Z,0
2022-10-27T18:14:52.927Z,0
2022-10-27T18:19:52.700Z,0
2022-10-27T18:24:52.914Z,0
2022-10-27T18:29:52.952Z,0
2022-10-27T18:34:52.954Z,0
2022-10-27T18:39:53.005Z,0
2022-10-27T18:44:52.761Z,0
2022-10-27T18:49:52.776Z,0
2022-10-27T18:54:52.935Z,0
2022-10-27T18:59:53.164Z,0
2022-10-27T19:04:52.665Z,0
2022-10-27T19:09:52.688Z,0
2022-10-27T19:14:52.831Z,0
2022-10-27T19:19:52.774Z,0
2022-10-27T19:24:52.724Z,0
2022-10-27T19:29:53.079Z,0
2022-10-27T19:34:52.654Z,0
2022-10-27T19:39:52.863Z,0
2022-10-27T19:44:52.922Z,0
2022-10-27T19:49:52.910Z,0
2022-10-27T19:54:52.747Z,0
2022-10-27T19:59:52.570Z,0
2022-10-27T20:04:52.610Z,0
2022-10-27T20:09:53.368Z,0
2022-10-27T20:14:52.837Z,0
2022-10-27T20:19:52.869Z,0
2022-10-27T20:24:55.175Z,0
2022-10-27T20:29:52.889Z,0
2022-10-27T20:34:52.749Z,0
2022-10-27T20:39:52.609Z,0
2022-10-27T20:44:52.535Z,0
2022-10-27T20:49:52.747Z,0
2022-10-27T20:54:52.952Z,0
2022-10-27T20:59:52.662Z,0
2022-10-27T21:04:52.658Z,0
2022-10-27T21:09:52.864Z,0
2022-10-27T21:14:52.817Z,0
2022-10-27T21:19:52.817Z,0
2022-10-27T21:24:52.578Z,0
2022-10-27T21:29:52.792Z,0
2022-10-27T21:34:52.606Z,0
2022-10-27T21:39:52.573Z,0
2022-10-27T21:44:52.711Z,0
2022-10-27T21:49:52.690Z,0
2022-10-27T21:54:52.677Z,0
2022-10-27T21:59:52.468Z,0
2022-10-27T22:04:52.662Z,0
2022-10-27T22:09:52.708Z,0
2022-10-27T22:14:52.688Z,0
2022-10-27T22:19:52.837Z,0
2022-10-27T22:24:52.442Z,0
2022-10-27T22:29:52.643Z,0
2022-10-27T22:34:52.651Z,0
2022-10-27T22:39:52.452Z,0
2022-10-27T22:44:52.684Z,0
2022-10-27T22:49:54.259Z,0
2022-10-27T22:54:52.693Z,0
2022-10-27T22:59:52.718Z,0
2022-10-27T23:04:52.496Z,0
2022-10-27T23:09:52.562Z,0
2022-10-27T23:14:52.528Z,0
2022-10-27T23:19:52.397Z,0
2022-10-27T23:24:52.927Z,0
2022-10-27T23:29:52.750Z,0
2022-10-27T23:34:52.872Z,0
2022-10-27T23:39:52.510Z,0
2022-10-27T23:44:52.490Z,0
2022-10-27T23:49:52.547Z,0
2022-10-27T23:54:52.447Z,0
2022-10-27T23:59:52.493Z,0
